Time;durP1;ratioP1;P1;durP2;ratioP2;P2;SDS_P1;SDS_P2;PMS_P1;PMS_P2;Temp;Humidity;BMP_temperature;BMP_pressure;BME280_temperature;BME280_humidity;BME280_pressure;Samples;Min_cycle;Max_cycle;Signal;HPM_P1;HPM_P2
2022/02/10 00:20:32;;;;;;;26.57;10.43;;;-0.70;99.90;;;;;;4998766;28;20426;-58
2022/02/10 00:23:19;;;;;;;;;;;;;;;;;;;;;
2022/02/10 00:26:12;;;;;;;23.53;9.97;;;-0.80;99.90;;;;;;5011788;28;20434;-57
2022/02/10 00:34:26;;;;;;;23.73;10.53;;;-0.90;99.90;;;;;;4999786;28;20443;-57
2022/02/10 00:36:27;;;;;;;18.50;10.47;;;-0.90;99.90;;;;;;4994540;28;20470;-58
2022/02/10 00:39:08;;;;;;;19.30;10.40;;;-0.90;99.90;;;;;;4999544;28;20441;-59
2022/02/10 00:41:33;;;;;;;25.47;11.10;;;-0.90;99.90;;;;;;5001455;28;20460;-57
2022/02/10 00:43:59;;;;;;;20.40;10.40;;;-0.90;99.90;;;;;;5005604;28;20434;-59
2022/02/10 00:46:24;;;;;;;19.03;9.57;;;-1.00;99.90;;;;;;5008647;28;20182;-57
2022/02/10 00:48:50;;;;;;;20.67;10.30;;;-1.00;99.90;;;;;;4999679;28;20297;-55
2022/02/10 00:51:16;;;;;;;22.40;9.80;;;-1.00;99.90;;;;;;4997871;28;20186;-57
2022/02/10 00:53:43;;;;;;;20.83;10.70;;;-1.00;99.90;;;;;;5007692;28;20189;-58
2022/02/10 00:56:10;;;;;;;20.63;10.90;;;-1.00;99.90;;;;;;5009349;28;20905;-57
2022/02/10 00:58:39;;;;;;;16.77;9.57;;;-1.00;99.90;;;;;;5010293;28;20834;-59
2022/02/10 01:31:06;;;;;;;15.60;8.70;;;-1.20;99.90;;;;;;5016259;28;20420;-61
2022/02/10 01:33:34;;;;;;;22.40;9.60;;;-1.20;99.90;;;;;;5009649;28;20461;-57
2022/02/10 01:36:00;;;;;;;15.43;9.00;;;-1.20;99.90;;;;;;5004218;28;20460;-57
2022/02/10 01:38:25;;;;;;;18.03;9.60;;;-1.20;99.90;;;;;;4996182;28;20963;-57
2022/02/10 02:05:55;;;;;;;15.50;7.90;;;-1.40;99.90;;;;;;4968920;28;20441;-59
2022/02/10 02:08:25;;;;;;;17.87;7.90;;;-1.40;99.90;;;;;;4952834;28;20439;-58
2022/02/10 02:10:51;;;;;;;17.03;8.43;;;-1.40;99.90;;;;;;4980710;28;20441;-60
2022/02/10 02:13:16;;;;;;;14.27;7.97;;;-1.40;99.90;;;;;;5003528;28;20472;-60
2022/02/10 02:15:42;;;;;;;16.23;8.20;;;-1.50;99.90;;;;;;5005134;28;21232;-57
2022/02/10 02:18:08;;;;;;;12.03;7.30;;;-1.50;99.90;;;;;;5009819;28;20178;-56
2022/02/10 02:20:33;;;;;;;15.27;8.00;;;-1.50;99.90;;;;;;4999025;28;20219;-57
2022/02/10 02:22:59;;;;;;;16.87;7.70;;;-1.50;99.90;;;;;;5033162;22;20250;-57
2022/02/10 02:25:25;;;;;;;14.13;8.00;;;-1.50;99.90;;;;;;5020853;28;20213;-58
2022/02/10 02:27:55;;;;;;;14.60;7.30;;;-1.60;99.90;;;;;;5011906;28;20182;-58
2022/02/10 02:30:25;;;;;;;12.70;7.17;;;-1.60;99.90;;;;;;5005658;28;20205;-53
2022/02/10 02:36:16;;;;;;;14.23;7.83;;;-1.60;99.90;;;;;;4968707;28;20555;-56
2022/02/10 03:08:24;;;;;;;14.37;7.40;;;-1.60;99.90;;;;;;4963334;28;20800;-53
2022/02/10 03:13:27;;;;;;;13.30;7.70;;;-1.60;99.90;;;;;;4965445;28;20459;-52
2022/02/10 03:18:38;;;;;;;13.43;8.00;;;-1.60;99.90;;;;;;4961753;28;20543;-53
2022/02/10 04:07:52;;;;;;;13.57;6.67;;;-1.90;99.90;;;;;;4972538;28;20938;-54
2022/02/10 04:10:40;;;;;;;13.30;8.10;;;-1.80;99.90;;;;;;4965969;28;20799;-53
2022/02/10 04:16:00;;;;;;;9.80;6.83;;;-1.80;99.90;;;;;;4958054;28;20464;-54
2022/02/10 04:26:53;;;;;;;10.03;5.70;;;-1.90;99.90;;;;;;4958746;28;20445;-55
2022/02/10 04:59:03;;;;;;;13.27;7.60;;;-2.00;99.90;;;;;;4988899;28;20438;-53
2022/02/10 05:35:22;;;;;;;16.57;7.20;;;-2.10;99.90;;;;;;4986369;28;20439;-57
2022/02/10 05:37:52;;;;;;;15.97;6.47;;;-2.10;99.90;;;;;;4987569;28;20243;-56
2022/02/10 05:45:53;;;;;;;17.70;7.80;;;-2.20;99.90;;;;;;4979520;28;20452;-56
2022/02/10 05:58:38;;;;;;;;;;;;;;;;;;;;;
2022/02/10 07:11:04;;;;;;;27.80;9.50;;;-2.20;99.90;;;;;;4960676;28;20674;-54
2022/02/10 07:48:59;;;;;;;16.80;9.70;;;-1.60;99.90;;;;;;4979854;28;20448;-56
2022/02/10 07:51:52;;;;;;;24.83;10.47;;;-1.50;99.90;;;;;;4970369;28;20423;-54
2022/02/10 07:54:22;;;;;;;22.57;10.97;;;-1.40;99.90;;;;;;4969267;28;20508;-51
2022/02/10 07:59:55;;;;;;;29.20;11.83;;;-1.30;99.90;;;;;;4966931;28;20827;-52
2022/02/10 08:56:10;;;;;;;31.80;14.50;;;0.70;99.90;;;;;;5004788;28;20461;-59
2022/02/10 09:09:55;;;;;;;27.20;16.00;;;1.40;99.90;;;;;;5013988;28;20250;-58
2022/02/10 10:01:00;;;;;;;15.17;10.13;;;5.60;97.70;;;;;;5004524;28;20510;-60
2022/02/10 10:03:37;;;;;;;21.70;10.60;;;5.80;95.90;;;;;;5003729;28;20457;-57
2022/02/10 10:19:23;;;;;;;;;;;;;;;;;;;;;
2022/02/10 10:21:49;;;;;;;12.83;7.97;;;7.20;83.20;;;;;;5008035;28;20181;-59
2022/02/10 10:24:44;;;;;;;13.73;6.40;;;7.40;80.80;;;;;;5008207;28;20471;-60
2022/02/10 10:27:33;;;;;;;19.17;7.67;;;7.70;77.80;;;;;;4996121;28;20479;-60
2022/02/10 10:57:13;;;;;;;7.90;5.30;;;9.50;61.30;;;;;;5003099;28;20511;-60
2022/02/10 11:42:25;;;;;;;4.60;3.67;;;13.00;51.00;;;;;;5007857;28;20415;-59
2022/02/10 14:16:59;;;;;;;5.67;4.23;;;16.90;40.10;;;;;;5001713;28;20464;-60
2022/02/10 14:19:38;;;;;;;7.97;4.40;;;16.00;40.70;;;;;;5006453;28;20169;-58
2022/02/10 14:27:26;;;;;;;9.43;4.90;;;15.20;42.30;;;;;;5002788;28;20422;-60
2022/02/10 14:29:52;;;;;;;7.90;4.43;;;14.80;42.80;;;;;;4991681;28;20435;-59
2022/02/10 14:32:22;;;;;;;9.83;4.33;;;14.80;43.30;;;;;;5003798;28;20434;-59
2022/02/10 14:34:49;;;;;;;10.60;4.53;;;14.90;43.30;;;;;;5016746;28;20439;-59
2022/02/10 16:17:07;;;;;;;13.60;6.13;;;8.20;59.60;;;;;;4991872;28;20494;-61
2022/02/10 16:19:35;;;;;;;11.23;5.93;;;8.10;59.80;;;;;;5005708;28;20482;-59
2022/02/10 16:22:21;;;;;;;15.80;6.47;;;8.10;60.00;;;;;;5005037;28;20459;-60
2022/02/10 16:24:50;;;;;;;14.57;5.73;;;8.00;60.20;;;;;;5005393;28;20438;-61
2022/02/10 16:27:29;;;;;;;9.20;5.80;;;7.90;60.30;;;;;;5010793;28;20438;-60
2022/02/10 16:30:00;;;;;;;18.67;5.60;;;7.90;60.70;;;;;;5009247;28;20455;-61
2022/02/10 16:32:27;;;;;;;9.93;5.50;;;7.90;61.00;;;;;;5003719;28;20455;-61
2022/02/10 16:34:53;;;;;;;8.13;5.60;;;7.80;61.20;;;;;;5001498;28;20971;-59
2022/02/10 16:37:20;;;;;;;11.53;5.87;;;7.80;61.60;;;;;;4993688;28;20474;-58
2022/02/10 16:39:45;;;;;;;11.00;5.80;;;7.70;61.70;;;;;;4999268;28;20449;-60
2022/02/10 16:42:16;;;;;;;10.23;6.30;;;7.70;62.70;;;;;;5000348;28;20498;-61
2022/02/10 16:44:47;;;;;;;10.10;6.37;;;7.60;62.40;;;;;;5005120;28;20182;-60
2022/02/10 16:47:14;;;;;;;9.67;5.70;;;7.60;62.50;;;;;;5006366;28;21156;-59
2022/02/10 16:49:46;;;;;;;10.20;5.50;;;7.60;63.00;;;;;;4988836;28;20545;-60
2022/02/10 16:52:26;;;;;;;10.77;6.20;;;7.60;62.90;;;;;;4996288;28;20440;-60
2022/02/10 16:55:03;;;;;;;13.43;5.77;;;7.50;62.90;;;;;;5006252;28;20690;-57
2022/02/10 16:57:40;;;;;;;6.80;3.77;;;7.50;62.60;;;;;;4994062;28;20462;-60
2022/02/10 17:18:50;;;;;;;9.43;4.60;;;7.10;61.30;;;;;;5015829;28;20441;-61
2022/02/10 17:29:14;;;;;;;5.87;3.77;;;6.90;60.80;;;;;;4995898;28;20432;-59
2022/02/10 17:31:53;;;;;;;7.63;3.67;;;6.90;60.90;;;;;;5004146;28;20438;-58
2022/02/10 17:34:37;;;;;;;6.90;3.90;;;6.90;61.60;;;;;;4993122;28;20546;-58
2022/02/10 17:53:02;;;;;;;7.73;4.30;;;6.70;62.80;;;;;;4994486;28;21527;-59
2022/02/10 17:55:28;;;;;;;7.60;4.47;;;6.70;63.20;;;;;;4993921;28;20431;-59
2022/02/10 17:57:54;;;;;;;8.77;4.43;;;6.60;63.40;;;;;;5002966;28;20434;-60
2022/02/10 18:00:25;;;;;;;6.23;4.07;;;6.60;63.60;;;;;;5005370;28;20429;-60
2022/02/10 18:02:55;;;;;;;7.63;3.43;;;6.60;63.70;;;;;;5002158;28;20204;-59
2022/02/10 18:08:17;;;;;;;9.80;4.37;;;6.60;64.40;;;;;;4995531;28;20482;-59
2022/02/10 18:16:06;;;;;;;10.37;3.80;;;6.60;64.80;;;;;;5007495;28;20498;-59
2022/02/10 18:18:40;;;;;;;8.23;4.53;;;6.60;65.10;;;;;;4998051;28;20447;-58
2022/02/10 18:21:27;;;;;;;8.57;5.03;;;6.60;65.20;;;;;;5005981;28;20459;-59
2022/02/10 18:27:30;;;;;;;11.17;4.70;;;6.60;65.40;;;;;;5000011;28;20479;-59
2022/02/10 19:12:01;;;;;;;8.60;4.87;;;6.70;66.60;;;;;;5006986;28;20430;-59
2022/02/10 19:14:28;;;;;;;6.00;4.80;;;6.70;67.00;;;;;;5006364;28;20433;-59
2022/02/10 19:16:54;;;;;;;7.40;4.43;;;6.60;67.30;;;;;;5000308;28;20550;-59
2022/02/10 19:19:21;;;;;;;9.13;5.70;;;6.60;67.60;;;;;;5001872;28;20432;-60
2022/02/10 19:21:46;;;;;;;9.30;4.97;;;6.60;67.80;;;;;;5008676;28;20604;-60
2022/02/10 19:24:12;;;;;;;10.40;5.53;;;6.60;68.20;;;;;;5004911;28;20475;-60
2022/02/10 19:26:38;;;;;;;13.00;6.60;;;6.60;67.60;;;;;;5004364;28;20183;-59
2022/02/10 19:29:04;;;;;;;12.93;7.27;;;6.60;67.30;;;;;;5003380;28;20189;-61
2022/02/10 19:31:34;;;;;;;12.50;7.77;;;6.60;67.50;;;;;;5001077;28;20431;-60
2022/02/10 19:34:00;;;;;;;14.80;8.87;;;6.60;67.80;;;;;;4999239;28;20447;-60
2022/02/10 19:36:28;;;;;;;13.60;7.73;;;6.60;68.00;;;;;;5002605;28;20470;-60
2022/02/10 19:38:54;;;;;;;10.97;6.30;;;6.60;68.00;;;;;;5003656;28;20215;-59
2022/02/10 19:41:19;;;;;;;12.63;6.57;;;6.60;68.10;;;;;;5001766;28;20456;-59
2022/02/10 19:43:45;;;;;;;12.00;7.50;;;6.60;67.90;;;;;;5000018;28;20288;-59
2022/02/10 19:46:11;;;;;;;10.70;6.30;;;6.60;67.60;;;;;;5020564;28;20212;-60
2022/02/10 19:48:39;;;;;;;12.07;6.80;;;6.60;67.60;;;;;;5005028;28;20211;-60
2022/02/10 19:51:05;;;;;;;13.77;7.67;;;6.60;68.10;;;;;;5005066;28;20958;-59
2022/02/10 19:53:30;;;;;;;12.20;7.90;;;6.60;68.70;;;;;;5002225;28;20451;-60
2022/02/10 19:55:56;;;;;;;11.07;7.43;;;6.50;69.10;;;;;;5000942;28;20462;-59
2022/02/10 19:58:24;;;;;;;10.87;6.20;;;6.50;69.50;;;;;;5003551;28;20170;-59
2022/02/10 20:00:56;;;;;;;12.30;7.10;;;6.50;70.10;;;;;;4999053;28;20854;-59
2022/02/10 20:03:23;;;;;;;11.00;6.43;;;6.50;69.30;;;;;;5005412;28;20513;-59
2022/02/10 20:05:51;;;;;;;9.43;6.57;;;6.50;68.90;;;;;;5003984;28;20446;-59
2022/02/10 20:08:20;;;;;;;14.07;7.30;;;6.50;69.00;;;;;;4999620;28;20426;-58
2022/02/10 20:10:45;;;;;;;12.40;6.77;;;6.50;69.60;;;;;;5006135;28;20444;-59
2022/02/10 20:13:16;;;;;;;10.70;7.20;;;6.60;70.20;;;;;;4995854;28;20529;-59
2022/02/10 20:15:43;;;;;;;10.50;7.27;;;6.50;70.20;;;;;;5000760;28;20599;-60
2022/02/10 20:18:12;;;;;;;12.37;7.27;;;6.50;70.80;;;;;;5004326;28;20431;-60
2022/02/10 20:20:38;;;;;;;10.33;6.47;;;6.50;71.60;;;;;;5000771;28;20427;-60
2022/02/10 20:23:04;;;;;;;12.20;7.20;;;6.50;71.40;;;;;;5023481;23;20470;-58
2022/02/10 20:25:31;;;;;;;15.10;8.13;;;6.50;70.80;;;;;;5023931;28;20450;-57
2022/02/10 20:27:57;;;;;;;11.27;6.40;;;6.50;70.50;;;;;;5020662;28;20171;-56
2022/02/10 20:30:24;;;;;;;14.53;8.97;;;6.50;70.50;;;;;;5016752;28;21018;-58
2022/02/10 20:32:50;;;;;;;14.03;7.90;;;6.40;70.30;;;;;;5019617;28;20628;-57
2022/02/10 20:35:17;;;;;;;16.73;7.93;;;6.50;70.80;;;;;;5024028;28;20454;-58
2022/02/10 20:37:43;;;;;;;14.73;7.67;;;6.50;71.30;;;;;;5021767;28;20299;-58
2022/02/10 20:40:09;;;;;;;12.07;7.50;;;6.40;71.90;;;;;;5013154;28;22050;-58
2022/02/10 20:42:35;;;;;;;15.00;9.53;;;6.40;72.60;;;;;;5019718;28;20182;-59
2022/02/10 20:45:01;;;;;;;13.70;8.07;;;6.40;73.60;;;;;;5021469;28;20450;-60
2022/02/10 20:47:28;;;;;;;14.77;7.80;;;6.30;73.90;;;;;;5023532;28;20274;-59
2022/02/10 20:49:54;;;;;;;14.90;9.20;;;6.30;74.20;;;;;;5020641;28;20544;-58
2022/02/10 20:52:19;;;;;;;15.90;9.60;;;6.30;75.30;;;;;;5019063;28;20895;-58
2022/02/10 20:54:46;;;;;;;23.90;14.07;;;6.30;76.20;;;;;;5020300;28;20808;-58
2022/02/10 20:57:13;;;;;;;21.13;10.73;;;6.20;77.00;;;;;;5016335;28;20219;-57
2022/02/10 20:59:41;;;;;;;21.77;11.60;;;6.20;77.80;;;;;;5023592;28;20430;-57
2022/02/10 21:02:18;;;;;;;19.60;10.90;;;6.20;78.60;;;;;;5018993;28;20962;-56
2022/02/10 21:04:56;;;;;;;22.37;10.30;;;6.20;79.10;;;;;;5016483;28;21158;-57
2022/02/10 21:07:37;;;;;;;27.37;12.80;;;6.20;80.50;;;;;;5018868;28;20514;-58
2022/02/10 21:10:06;;;;;;;16.47;8.90;;;6.20;81.00;;;;;;5023304;28;20465;-58
2022/02/10 21:12:36;;;;;;;24.27;9.00;;;6.10;80.90;;;;;;5018492;28;20430;-58
2022/02/10 21:15:06;;;;;;;23.00;7.03;;;6.10;80.90;;;;;;5034819;28;20454;-59
2022/02/10 21:17:31;;;;;;;10.03;6.40;;;6.10;80.10;;;;;;5028075;28;21022;-58
2022/02/10 21:20:01;;;;;;;11.87;6.90;;;6.20;80.30;;;;;;5028017;28;20506;-56
2022/02/10 21:22:30;;;;;;;14.23;7.37;;;6.20;80.50;;;;;;5018478;28;20164;-56
2022/02/10 21:25:33;;;;;;;15.57;7.40;;;6.20;80.40;;;;;;5016822;28;20457;-57
2022/02/10 21:27:50;;;;;;;17.33;7.40;;;6.20;80.80;;;;;;5014656;28;20438;-57
2022/02/10 21:30:17;;;;;;;11.30;6.20;;;6.20;81.50;;;;;;5014837;28;20453;-57
2022/02/10 21:35:24;;;;;;;11.53;6.37;;;6.20;82.80;;;;;;5015102;28;20442;-56
2022/02/10 21:47:11;;;;;;;12.57;6.80;;;6.20;83.40;;;;;;5027354;28;20421;-58
2022/02/10 22:21:31;;;;;;;9.27;5.50;;;6.00;96.60;;;;;;5023125;28;20609;-57
2022/02/10 22:23:56;;;;;;;9.10;5.53;;;6.00;98.30;;;;;;5026952;28;20473;-54
2022/02/10 22:26:29;;;;;;;11.33;6.30;;;6.00;99.90;;;;;;5023112;28;20434;-57
2022/02/10 22:29:07;;;;;;;10.80;5.60;;;6.00;99.90;;;;;;5025372;28;20671;-57
2022/02/10 22:36:38;;;;;;;18.67;7.53;;;6.10;99.90;;;;;;5026518;28;20455;-55
2022/02/10 22:39:05;;;;;;;10.13;5.80;;;6.10;99.90;;;;;;5020844;28;20415;-56
2022/02/10 22:41:31;;;;;;;13.00;6.90;;;6.10;99.90;;;;;;5027869;28;20751;-55
2022/02/10 22:44:00;;;;;;;12.03;6.60;;;6.20;99.90;;;;;;5026450;28;20453;-57
2022/02/10 22:46:26;;;;;;;14.77;7.30;;;6.20;99.90;;;;;;5025061;28;20418;-57
2022/02/10 22:48:52;;;;;;;15.30;7.57;;;6.20;99.90;;;;;;5023497;28;20426;-57
2022/02/10 22:51:21;;;;;;;15.27;7.13;;;6.20;99.90;;;;;;5026236;28;20422;-57
2022/02/10 22:53:47;;;;;;;11.63;6.47;;;6.20;99.90;;;;;;5025965;28;20302;-55
2022/02/10 22:56:16;;;;;;;17.33;6.30;;;6.20;99.90;;;;;;5027751;28;20457;-57
2022/02/10 22:58:42;;;;;;;17.50;6.97;;;6.20;99.90;;;;;;5026834;28;20453;-57
2022/02/10 23:01:10;;;;;;;16.00;6.87;;;6.20;99.90;;;;;;5017747;28;20508;-56
2022/02/10 23:03:39;;;;;;;10.20;5.93;;;6.20;99.90;;;;;;5025434;28;20447;-57
2022/02/10 23:06:07;;;;;;;13.93;6.60;;;6.20;99.90;;;;;;5026061;28;20807;-58
2022/02/10 23:08:34;;;;;;;13.90;6.20;;;6.20;99.90;;;;;;5024864;28;20504;-58
2022/02/10 23:11:00;;;;;;;13.80;5.93;;;6.20;99.90;;;;;;5026064;28;20612;-57
2022/02/10 23:13:29;;;;;;;10.20;6.70;;;6.20;99.90;;;;;;5022842;28;20438;-57
2022/02/10 23:16:04;;;;;;;18.60;6.70;;;6.10;99.90;;;;;;5021304;28;21267;-56
2022/02/10 23:18:32;;;;;;;13.53;6.87;;;6.10;99.90;;;;;;5021028;28;20827;-56
2022/02/10 23:21:00;;;;;;;11.53;5.87;;;6.10;99.90;;;;;;5027003;28;20544;-57
2022/02/10 23:23:29;;;;;;;16.47;6.17;;;6.10;99.90;;;;;;5025044;28;20458;-57
2022/02/10 23:25:57;;;;;;;16.83;5.97;;;6.10;99.90;;;;;;5027049;28;20923;-56
2022/02/10 23:28:29;;;;;;;23.90;7.20;;;6.10;99.90;;;;;;5025084;28;20422;-57
2022/02/10 23:30:57;;;;;;;15.73;6.67;;;6.10;99.90;;;;;;5023803;28;20540;-57
2022/02/10 23:33:31;;;;;;;16.30;7.60;;;6.10;99.90;;;;;;5022132;28;20442;-57
2022/02/10 23:38:50;;;;;;;;;;;;;;;;;;;;;
2022/02/10 23:43:48;;;;;;;8.90;5.77;;;6.10;99.90;;;;;;5021653;28;20443;-56
2022/02/10 23:46:15;;;;;;;17.27;5.90;;;6.00;99.90;;;;;;5025582;28;20453;-57
2022/02/10 23:48:41;;;;;;;9.50;5.10;;;6.10;99.90;;;;;;5024191;28;20415;-56
2022/02/10 23:51:07;;;;;;;12.20;5.30;;;6.10;99.90;;;;;;5021456;28;20487;-56
2022/02/10 23:53:34;;;;;;;8.57;4.33;;;6.10;99.90;;;;;;5024036;28;20954;-57
2022/02/10 23:56:03;;;;;;;8.43;4.33;;;6.10;99.90;;;;;;5025729;28;20410;-55
2022/02/10 23:58:38;;;;;;;8.37;4.87;;;6.10;99.90;;;;;;5024808;28;20411;-56
